createdAt,value
2023-01-05T00:00:08.600Z,75.55
2023-01-05T00:02:40.903Z,75.57
2023-01-05T00:05:07.504Z,75.01
2023-01-05T00:07:33.834Z,74.89
2023-01-05T00:10:00.162Z,75.78
2023-01-05T00:12:45.132Z,74.92
2023-01-05T00:15:30.005Z,74.76
2023-01-05T00:18:14.623Z,74.90
2023-01-05T00:20:59.455Z,74.97
2023-01-05T00:23:25.828Z,75.19
2023-01-05T00:25:52.171Z,75.29
2023-01-05T00:28:18.525Z,74.55
2023-01-05T00:30:46.770Z,75.13
2023-01-05T00:33:17.285Z,75.40
2023-01-05T00:35:43.857Z,75.53
2023-01-05T00:38:10.556Z,75.79
2023-01-05T00:40:38.470Z,75.52
2023-01-05T00:43:04.891Z,75.84
2023-01-05T00:45:31.371Z,75.82
2023-01-05T00:47:57.830Z,75.75
2023-01-05T00:50:24.287Z,75.78
2023-01-05T00:52:50.877Z,76.32
2023-01-05T00:55:17.528Z,75.99
2023-01-05T00:57:43.981Z,76.32
2023-01-05T01:00:15.039Z,76.22
2023-01-05T01:02:41.455Z,76.81
2023-01-05T01:05:08.197Z,77.29
2023-01-05T01:07:34.564Z,76.32
2023-01-05T01:10:00.900Z,76.32
2023-01-05T01:12:27.267Z,76.50
2023-01-05T01:14:53.670Z,76.49
2023-01-05T01:17:20.125Z,76.99
2023-01-05T01:19:46.576Z,76.41
2023-01-05T01:22:13.904Z,76.95
2023-01-05T01:24:40.457Z,76.51
2023-01-05T01:27:06.921Z,76.85
2023-01-05T01:29:33.415Z,76.14
2023-01-05T01:31:59.936Z,76.92
2023-01-05T01:34:26.546Z,76.85
2023-01-05T01:36:55.167Z,76.13
2023-01-05T01:39:24.106Z,76.86
2023-01-05T01:41:55.911Z,77.14
2023-01-05T01:44:53.491Z,76.75
2023-01-05T01:47:29.767Z,76.28
2023-01-05T01:49:58.849Z,76.52
2023-01-05T01:52:29.290Z,77.01
2023-01-05T01:54:56.949Z,76.48
2023-01-05T01:57:26.470Z,76.53
2023-01-05T01:59:53.006Z,76.58
2023-01-05T02:02:21.653Z,75.58
2023-01-05T02:04:48.898Z,76.02
2023-01-05T02:07:16.196Z,75.71
2023-01-05T02:09:43.814Z,76.27
2023-01-05T02:12:27.386Z,75.85
2023-01-05T02:15:09.192Z,76.01
2023-01-05T02:18:08.691Z,76.28
2023-01-05T02:21:08.031Z,76.14
2023-01-05T02:24:18.015Z,76.04
2023-01-05T02:27:15.252Z,76.07
2023-01-05T02:30:16.284Z,76.51
2023-01-05T02:33:07.995Z,76.65
2023-01-05T02:35:51.086Z,76.73
2023-01-05T02:38:40.522Z,76.47
2023-01-05T02:41:20.644Z,76.47
2023-01-05T02:43:47.117Z,76.26
2023-01-05T02:46:13.491Z,76.17
2023-01-05T02:48:41.889Z,75.80
2023-01-05T02:51:16.176Z,76.31
2023-01-05T02:54:09.448Z,76.01
2023-01-05T02:56:43.858Z,76.66
2023-01-05T02:59:20.632Z,75.61
2023-01-05T03:01:55.066Z,76.59
2023-01-05T03:04:32.798Z,76.22
2023-01-05T03:07:05.806Z,76.47
2023-01-05T03:09:37.921Z,76.59
2023-01-05T03:12:34.973Z,76.83
2023-01-05T03:15:20.799Z,76.51
2023-01-05T03:17:51.079Z,76.81
2023-01-05T03:20:23.079Z,77.61
2023-01-05T03:23:09.795Z,77.94
2023-01-05T03:25:58.348Z,78.66
2023-01-05T03:28:56.200Z,78.21
2023-01-05T03:31:59.210Z,78.63
2023-01-05T03:34:59.685Z,78.58
2023-01-05T03:37:35.377Z,78.13
2023-01-05T03:40:04.944Z,78.53
2023-01-05T03:42:35.272Z,79.08
2023-01-05T03:45:02.341Z,79.14
2023-01-05T03:47:28.746Z,80.45
2023-01-05T03:49:56.090Z,80.57
2023-01-05T03:52:22.684Z,80.90
2023-01-05T03:54:49.727Z,80.08
2023-01-05T03:57:16.122Z,80.72
2023-01-05T03:59:43.754Z,81.05
2023-01-05T04:02:10.226Z,81.50
2023-01-05T04:04:36.884Z,82.25
2023-01-05T04:07:07.340Z,82.02
2023-01-05T04:09:34.522Z,82.28
2023-01-05T04:12:01.756Z,82.90
2023-01-05T04:14:32.756Z,83.39
2023-01-05T04:16:59.680Z,82.68
2023-01-05T04:19:26.931Z,83.04
2023-01-05T04:21:54.832Z,82.29
2023-01-05T04:24:23.043Z,82.71
2023-01-05T04:26:49.657Z,82.75
2023-01-05T04:29:18.725Z,83.03
2023-01-05T04:31:48.533Z,82.70
2023-01-05T04:34:14.886Z,82.76
2023-01-05T04:36:43.040Z,82.79
2023-01-05T04:39:14.486Z,82.38
2023-01-05T04:41:41.716Z,82.13
2023-01-05T04:44:08.312Z,83.00
2023-01-05T04:46:35.307Z,82.67
2023-01-05T04:49:03.068Z,82.58
2023-01-05T04:51:29.567Z,82.33
2023-01-05T04:53:55.980Z,82.78
2023-01-05T04:56:24.285Z,82.71
2023-01-05T04:58:50.696Z,82.89
2023-01-05T05:01:18.474Z,82.51
2023-01-05T05:03:49.791Z,82.60
2023-01-05T05:06:19.290Z,82.76
2023-01-05T05:08:47.762Z,82.53
2023-01-05T05:11:14.573Z,82.77
2023-01-05T05:13:41.601Z,82.44
2023-01-05T05:16:08.412Z,82.71
2023-01-05T05:18:35.166Z,82.83
2023-01-05T05:21:03.468Z,83.33
2023-01-05T05:23:33.190Z,84.00
2023-01-05T05:26:00.143Z,84.66
2023-01-05T05:28:28.253Z,85.09
2023-01-05T05:30:56.172Z,85.58
2023-01-05T05:33:23.949Z,86.41
2023-01-05T05:35:50.914Z,86.76
2023-01-05T05:38:17.262Z,86.82
2023-01-05T05:40:43.614Z,87.22
2023-01-05T05:43:10.095Z,87.21
2023-01-05T05:45:36.445Z,86.62
2023-01-05T05:48:02.925Z,86.83
2023-01-05T05:50:29.340Z,86.70
2023-01-05T05:52:55.661Z,86.90
2023-01-05T05:55:22.056Z,87.11
2023-01-05T05:57:48.426Z,87.66
2023-01-05T06:00:15.276Z,87.98
2023-01-05T06:02:41.710Z,88.47
2023-01-05T06:05:08.764Z,88.50
2023-01-05T06:07:35.134Z,88.49
2023-01-05T06:10:01.457Z,88.88
2023-01-05T06:12:27.930Z,88.47
2023-01-05T06:14:54.317Z,88.44
2023-01-05T06:17:20.651Z,88.76
2023-01-05T06:19:47.002Z,88.66
2023-01-05T06:22:13.362Z,89.04
2023-01-05T06:24:39.909Z,89.21
2023-01-05T06:27:06.272Z,89.26
2023-01-05T06:29:32.603Z,89.03
2023-01-05T06:31:58.984Z,89.37
2023-01-05T06:34:25.345Z,89.23
2023-01-05T06:36:51.705Z,89.41
2023-01-05T06:39:18.118Z,89.29
2023-01-05T06:41:44.614Z,89.63
2023-01-05T06:44:11.188Z,89.50
2023-01-05T06:46:37.569Z,89.42
2023-01-05T06:49:03.961Z,89.37
2023-01-05T06:51:30.431Z,89.17
2023-01-05T06:53:56.842Z,89.81
2023-01-05T06:56:23.262Z,89.67
2023-01-05T06:58:49.611Z,89.85
2023-01-05T07:01:16.065Z,89.59
2023-01-05T07:03:42.522Z,90.22
2023-01-05T07:06:14.609Z,89.99
2023-01-05T07:08:41.802Z,90.42
2023-01-05T07:11:08.323Z,90.54
2023-01-05T07:13:34.819Z,90.31
2023-01-05T07:16:01.233Z,90.52
2023-01-05T07:18:27.644Z,90.54
2023-01-05T07:20:54.036Z,90.27
2023-01-05T07:23:20.438Z,90.49
2023-01-05T07:25:46.803Z,90.22
2023-01-05T07:28:13.785Z,90.54
2023-01-05T07:30:40.140Z,90.15
2023-01-05T07:33:06.587Z,89.99
2023-01-05T07:35:33.057Z,89.92
2023-01-05T07:37:59.415Z,90.07
2023-01-05T07:40:25.864Z,90.51
2023-01-05T07:42:53.346Z,90.60
2023-01-05T07:45:20.918Z,90.40
2023-01-05T07:47:47.286Z,90.03
2023-01-05T07:50:13.729Z,90.09
2023-01-05T07:52:40.137Z,89.84
2023-01-05T07:55:06.977Z,89.83
2023-01-05T07:57:33.417Z,89.78
2023-01-05T07:59:59.793Z,89.72
2023-01-05T08:02:32.228Z,89.93
2023-01-05T08:05:02.202Z,90.09
2023-01-05T08:07:28.571Z,89.75
2023-01-05T08:10:13.658Z,89.86
2023-01-05T08:13:00.037Z,89.87
2023-01-05T08:15:26.602Z,89.51
2023-01-05T08:17:52.956Z,89.92
2023-01-05T08:20:19.433Z,89.25
2023-01-05T08:22:51.036Z,88.88
2023-01-05T08:25:17.579Z,89.19
2023-01-05T08:27:44.085Z,89.20
2023-01-05T08:30:13.328Z,88.97
2023-01-05T08:32:40.822Z,88.70
2023-01-05T08:35:07.560Z,89.13
2023-01-05T08:37:33.933Z,89.05
2023-01-05T08:40:00.355Z,88.76
2023-01-05T08:42:26.725Z,89.05
2023-01-05T08:44:53.121Z,88.85
2023-01-05T08:47:20.161Z,88.83
2023-01-05T08:49:47.301Z,88.48
2023-01-05T08:52:13.693Z,88.53
2023-01-05T08:54:40.085Z,88.31
2023-01-05T08:57:06.461Z,88.32
2023-01-05T08:59:32.840Z,88.11
2023-01-05T09:01:59.543Z,88.21
2023-01-05T09:04:27.576Z,87.50
2023-01-05T09:06:54.365Z,88.30
2023-01-05T09:09:24.172Z,87.79
2023-01-05T09:11:50.756Z,87.92
2023-01-05T09:14:17.427Z,87.74
2023-01-05T09:19:30.468Z,86.98
2023-01-05T09:21:56.921Z,87.48
2023-01-05T09:24:23.483Z,87.04
2023-01-05T09:26:50.426Z,87.25
2023-01-05T09:29:16.965Z,86.99
2023-01-05T09:31:43.870Z,86.53
2023-01-05T09:34:10.955Z,86.54
2023-01-05T09:36:38.870Z,86.64
2023-01-05T09:39:06.276Z,86.22
2023-01-05T09:41:47.387Z,86.04
2023-01-05T09:44:35.223Z,85.69
2023-01-05T09:47:15.205Z,85.48
2023-01-05T09:49:42.070Z,85.67
2023-01-05T09:52:10.558Z,85.47
2023-01-05T09:54:38.638Z,85.60
2023-01-05T09:57:09.483Z,85.68
2023-01-05T09:59:40.578Z,85.45
2023-01-05T10:02:19.135Z,85.33
2023-01-05T10:04:47.578Z,85.37
2023-01-05T10:07:27.002Z,85.22
2023-01-05T10:09:58.098Z,85.24
2023-01-05T10:12:53.259Z,84.25
2023-01-05T10:15:21.564Z,84.60
2023-01-05T10:17:48.388Z,84.47
2023-01-05T10:20:28.028Z,84.80
2023-01-05T10:23:18.511Z,85.08
2023-01-05T10:25:54.007Z,85.05
2023-01-05T10:28:51.208Z,84.47
2023-01-05T10:31:47.353Z,84.16
2023-01-05T10:34:22.641Z,84.21
2023-01-05T10:37:10.478Z,83.79
2023-01-05T10:40:00.750Z,83.89
2023-01-05T10:42:45.472Z,83.80
2023-01-05T10:45:15.291Z,83.74
2023-01-05T10:47:44.939Z,83.01
2023-01-05T10:50:40.553Z,83.20
2023-01-05T10:53:14.675Z,82.79
2023-01-05T10:55:51.337Z,82.76
2023-01-05T10:58:22.863Z,83.10
2023-01-05T11:00:50.119Z,82.63
2023-01-05T11:03:18.836Z,83.13
2023-01-05T11:05:48.068Z,82.78
2023-01-05T11:08:21.086Z,83.14
2023-01-05T11:10:57.791Z,82.39
2023-01-05T11:13:42.463Z,82.22
2023-01-05T11:16:21.317Z,81.92
2023-01-05T11:18:52.273Z,81.88
2023-01-05T11:21:41.419Z,82.59
2023-01-05T11:24:25.525Z,81.15
2023-01-05T11:26:56.534Z,81.66
2023-01-05T11:29:22.945Z,81.41
2023-01-05T11:32:01.395Z,81.11
2023-01-05T11:34:49.054Z,80.96
2023-01-05T11:37:25.196Z,81.25
2023-01-05T11:40:02.836Z,81.22
2023-01-05T11:42:32.856Z,81.47
2023-01-05T11:45:07.417Z,80.86
2023-01-05T11:47:43.508Z,81.09
2023-01-05T11:50:13.629Z,80.75
2023-01-05T11:52:49.872Z,80.57
2023-01-05T11:55:33.547Z,80.29
2023-01-05T11:58:17.651Z,80.03
2023-01-05T12:01:10.050Z,80.63
2023-01-05T12:03:59.266Z,80.93
2023-01-05T12:06:34.481Z,80.62
2023-01-05T12:09:19.736Z,80.43
2023-01-05T12:11:58.773Z,80.73
2023-01-05T12:14:56.002Z,80.99
2023-01-05T12:18:03.770Z,81.10
2023-01-05T12:20:42.311Z,81.18
2023-01-05T12:23:19.290Z,80.01
2023-01-05T12:26:13.568Z,79.94
2023-01-05T12:35:44.895Z,79.62
2023-01-05T12:38:33.130Z,79.49
2023-01-05T12:41:23.248Z,79.26
2023-01-05T12:44:14.268Z,78.61
2023-01-05T12:47:05.354Z,78.14
2023-01-05T12:50:05.074Z,78.60
2023-01-05T12:52:36.773Z,77.54
2023-01-05T12:55:18.084Z,77.79
2023-01-05T12:57:54.066Z,77.59
2023-01-05T13:00:21.401Z,77.53
2023-01-05T13:03:01.809Z,78.67
2023-01-05T13:05:43.079Z,77.36
2023-01-05T13:08:29.255Z,76.21
2023-01-05T13:11:16.136Z,77.49
2023-01-05T13:13:52.701Z,76.77
2023-01-05T13:16:23.415Z,76.53
2023-01-05T13:19:02.209Z,76.39
2023-01-05T13:21:29.253Z,76.20
2023-01-05T13:24:01.614Z,76.16
2023-01-05T13:26:35.769Z,76.42
2023-01-05T13:29:04.461Z,75.48
2023-01-05T13:31:45.003Z,75.53
2023-01-05T13:34:25.603Z,74.70
2023-01-05T13:37:30.499Z,76.03
2023-01-05T13:40:18.433Z,75.80
2023-01-05T13:42:47.790Z,76.13
2023-01-05T13:45:41.400Z,75.17
2023-01-05T13:48:44.561Z,75.82
2023-01-05T13:51:19.772Z,76.01
2023-01-05T13:53:48.245Z,75.32
2023-01-05T13:56:19.641Z,75.78
2023-01-05T13:58:50.450Z,75.71
2023-01-05T14:01:34.192Z,75.76
2023-01-05T14:04:01.315Z,76.67
2023-01-05T14:06:34.497Z,74.86
2023-01-05T14:09:14.813Z,74.85
2023-01-05T14:12:16.016Z,74.98
2023-01-05T14:15:00.487Z,75.77
2023-01-05T14:17:50.670Z,75.97
2023-01-05T14:20:31.189Z,75.82
2023-01-05T14:22:58.303Z,74.16
2023-01-05T14:25:50.157Z,75.06
2023-01-05T14:28:30.533Z,75.86
2023-01-05T14:31:16.157Z,75.05
2023-01-05T14:33:57.713Z,74.79
2023-01-05T14:36:52.841Z,74.77
2023-01-05T14:39:20.048Z,75.11
2023-01-05T14:42:16.154Z,75.52
2023-01-05T14:44:49.491Z,74.89
2023-01-05T14:47:17.604Z,75.00
2023-01-05T14:49:55.677Z,74.29
2023-01-05T14:52:53.158Z,74.18
2023-01-05T14:55:41.964Z,74.18
2023-01-05T14:58:35.624Z,74.17
2023-01-05T15:01:17.322Z,74.29
2023-01-05T15:04:08.401Z,74.86
2023-01-05T15:06:34.690Z,74.87
2023-01-05T15:09:25.612Z,74.41
2023-01-05T15:12:13.496Z,74.61
2023-01-05T15:14:45.855Z,75.42
2023-01-05T15:17:50.259Z,75.38
2023-01-05T15:20:46.064Z,75.91
2023-01-05T15:26:27.938Z,76.54
2023-01-05T15:29:28.292Z,76.83
2023-01-05T15:32:03.141Z,76.96
2023-01-05T15:34:38.104Z,76.51
2023-01-05T15:37:28.965Z,76.62
2023-01-05T15:39:57.115Z,76.42
2023-01-05T15:42:28.494Z,77.20
2023-01-05T15:44:56.827Z,77.34
2023-01-05T15:47:26.946Z,76.88
2023-01-05T15:49:58.464Z,77.44
2023-01-05T15:52:32.236Z,77.47
2023-01-05T15:55:11.768Z,77.72
2023-01-05T15:57:38.090Z,77.34
2023-01-05T16:00:18.243Z,77.73
2023-01-05T16:02:44.933Z,76.77
2023-01-05T16:05:23.143Z,77.07
2023-01-05T16:08:18.479Z,76.56
2023-01-05T16:10:53.630Z,76.73
2023-01-05T16:13:25.923Z,76.62
2023-01-05T16:15:55.707Z,76.25
2023-01-05T16:18:27.132Z,76.80
2023-01-05T16:20:55.864Z,76.42
2023-01-05T16:23:38.968Z,76.59
2023-01-05T16:26:06.503Z,76.45
2023-01-05T16:28:32.925Z,76.95
2023-01-05T16:30:59.333Z,76.98
2023-01-05T16:33:38.384Z,77.44
2023-01-05T16:36:22.074Z,77.76
2023-01-05T16:38:48.917Z,77.96
2023-01-05T16:41:24.138Z,78.44
2023-01-05T16:44:03.064Z,78.28
2023-01-05T16:46:33.238Z,78.47
2023-01-05T16:49:33.864Z,78.55
2023-01-05T16:52:01.132Z,78.90
2023-01-05T16:54:36.852Z,78.60
2023-01-05T16:57:31.853Z,78.79
2023-01-05T16:59:58.430Z,78.73
2023-01-05T17:02:45.346Z,78.88
2023-01-05T17:05:15.416Z,79.43
2023-01-05T17:07:43.887Z,79.37
2023-01-05T17:10:20.853Z,80.00
2023-01-05T17:13:05.577Z,80.51
2023-01-05T17:15:36.192Z,80.92
2023-01-05T17:20:54.999Z,80.90
2023-01-05T17:23:23.639Z,81.83
2023-01-05T17:28:24.413Z,82.92
2023-01-05T17:30:51.731Z,83.45
2023-01-05T17:33:18.429Z,84.23
2023-01-05T17:38:14.804Z,84.64
2023-01-05T17:40:41.483Z,84.93
2023-01-05T17:43:07.910Z,84.93
2023-01-05T17:45:37.740Z,84.68
2023-01-05T17:48:04.271Z,84.93
2023-01-05T17:53:04.592Z,85.38
2023-01-05T17:55:31.625Z,85.23
2023-01-05T17:57:59.490Z,85.43
2023-01-05T18:00:27.605Z,85.34
2023-01-05T18:02:54.809Z,85.63
2023-01-05T18:05:21.802Z,85.78
2023-01-05T18:07:49.151Z,85.21
2023-01-05T18:10:19.238Z,85.43
2023-01-05T18:12:45.763Z,85.88
2023-01-05T18:15:13.192Z,85.75
2023-01-05T18:17:40.316Z,86.15
2023-01-05T18:20:07.393Z,86.38
2023-01-05T18:22:33.920Z,86.58
2023-01-05T18:25:00.353Z,85.93
2023-01-05T18:27:26.684Z,86.24
2023-01-05T18:29:56.596Z,86.33
2023-01-05T18:32:23.708Z,86.58
2023-01-05T18:34:50.065Z,86.77
2023-01-05T18:37:23.331Z,86.75
2023-01-05T18:39:49.917Z,86.50
2023-01-05T18:42:16.381Z,86.56
2023-01-05T18:44:42.720Z,86.83
2023-01-05T18:47:09.194Z,86.83
2023-01-05T18:49:35.631Z,86.93
2023-01-05T18:52:05.257Z,87.46
2023-01-05T18:54:31.687Z,87.29
2023-01-05T18:56:58.062Z,87.45
2023-01-05T18:59:25.401Z,87.27
2023-01-05T19:01:51.872Z,87.79
2023-01-05T19:04:18.599Z,87.80
2023-01-05T19:06:44.970Z,87.65
2023-01-05T19:09:12.955Z,87.26
2023-01-05T19:11:44.370Z,88.10
2023-01-05T19:14:10.904Z,87.86
2023-01-05T19:16:37.535Z,87.96
2023-01-05T19:19:08.316Z,87.81
2023-01-05T19:21:37.647Z,88.49
2023-01-05T19:24:06.489Z,88.60
2023-01-05T19:26:33.833Z,88.93
2023-01-05T19:29:02.331Z,89.14
2023-01-05T19:31:29.745Z,88.98
2023-01-05T19:33:58.843Z,89.53
2023-01-05T19:36:32.215Z,89.46
2023-01-05T19:39:03.906Z,89.84
2023-01-05T19:41:30.897Z,89.76
2023-01-05T19:43:57.774Z,90.03
2023-01-05T19:46:27.038Z,89.85
2023-01-05T19:48:54.133Z,90.01
2023-01-05T19:51:23.268Z,90.19
2023-01-05T19:53:57.869Z,90.15
2023-01-05T19:56:31.212Z,90.13
2023-01-05T19:59:00.062Z,90.18
2023-01-05T20:01:28.573Z,90.21
2023-01-05T20:03:55.877Z,90.54
2023-01-05T20:06:23.504Z,90.42
2023-01-05T20:08:54.617Z,90.43
2023-01-05T20:11:39.417Z,90.49
2023-01-05T20:14:13.511Z,90.62
2023-01-05T20:16:41.548Z,90.52
2023-01-05T20:19:08.974Z,90.85
2023-01-05T20:21:35.433Z,90.92
2023-01-05T20:24:03.264Z,90.85
2023-01-05T20:26:31.135Z,91.08
2023-01-05T20:29:01.262Z,90.92
2023-01-05T20:31:34.813Z,91.16
2023-01-05T20:34:05.622Z,91.46
2023-01-05T20:36:32.058Z,91.37
2023-01-05T20:38:59.064Z,91.00
2023-01-05T20:41:29.038Z,91.02
2023-01-05T20:43:56.575Z,90.99
2023-01-05T20:46:30.157Z,91.14
2023-01-05T20:48:57.218Z,90.83
2023-01-05T20:51:24.595Z,90.72
2023-01-05T20:53:52.794Z,90.75
2023-01-05T20:56:26.530Z,91.19
2023-01-05T20:58:54.076Z,91.32
2023-01-05T21:01:21.961Z,91.16
2023-01-05T21:03:49.947Z,90.88
2023-01-05T21:06:17.742Z,90.77
2023-01-05T21:08:49.053Z,90.91
2023-01-05T21:11:17.541Z,91.10
2023-01-05T21:13:49.370Z,91.23
2023-01-05T21:16:19.496Z,91.42
2023-01-05T21:18:46.688Z,91.31
2023-01-05T21:21:18.686Z,91.44
2023-01-05T21:23:47.287Z,90.81
2023-01-05T21:26:14.692Z,91.59
2023-01-05T21:28:43.565Z,91.44
2023-01-05T21:31:14.195Z,91.53
2023-01-05T21:33:41.246Z,91.74
2023-01-05T21:36:12.501Z,92.06
2023-01-05T21:39:02.298Z,91.89
2023-01-05T21:41:44.042Z,91.33
2023-01-05T21:44:12.195Z,92.03
2023-01-05T21:46:39.761Z,91.18
2023-01-05T21:49:07.626Z,91.37
2023-01-05T21:51:52.412Z,90.26
2023-01-05T21:54:38.152Z,90.24
2023-01-05T21:57:04.584Z,90.63
2023-01-05T21:59:31.202Z,90.16
2023-01-05T22:01:57.577Z,90.24
2023-01-05T22:04:23.993Z,90.13
2023-01-05T22:06:50.991Z,89.94
2023-01-05T22:09:17.999Z,90.56
2023-01-05T22:11:44.536Z,90.22
2023-01-05T22:14:11.166Z,90.31
2023-01-05T22:16:37.636Z,90.05
2023-01-05T22:19:04.167Z,90.10
2023-01-05T22:21:31.279Z,90.13
2023-01-05T22:23:58.016Z,89.80
2023-01-05T22:26:24.819Z,90.16
2023-01-05T22:28:51.906Z,90.11
2023-01-05T22:31:24.412Z,90.29
2023-01-05T22:33:53.063Z,90.29
2023-01-05T22:36:20.939Z,90.00
2023-01-05T22:38:49.087Z,90.06
2023-01-05T22:41:19.084Z,89.84
2023-01-05T22:43:46.138Z,89.85
2023-01-05T22:46:24.559Z,89.56
2023-01-05T22:48:53.036Z,89.66
2023-01-05T22:51:25.862Z,89.86
2023-01-05T22:53:52.633Z,89.85
2023-01-05T22:56:21.103Z,89.76
2023-01-05T22:58:48.363Z,89.85
2023-01-05T23:01:29.370Z,90.10
2023-01-05T23:03:58.363Z,90.44
2023-01-05T23:06:26.101Z,90.16
2023-01-05T23:08:53.631Z,90.07
2023-01-05T23:11:22.729Z,90.40
2023-01-05T23:13:50.641Z,90.44
2023-01-05T23:16:17.454Z,90.33
2023-01-05T23:18:44.695Z,90.50
2023-01-05T23:21:12.981Z,90.68
2023-01-05T23:23:40.250Z,90.64
2023-01-05T23:26:08.947Z,90.89
2023-01-05T23:28:35.624Z,90.57
2023-01-05T23:31:02.050Z,91.33
2023-01-05T23:33:31.322Z,91.18
2023-01-05T23:35:57.730Z,91.05
2023-01-05T23:38:25.248Z,91.22
2023-01-05T23:40:55.539Z,91.43
2023-01-05T23:43:28.317Z,90.93
2023-01-05T23:46:04.091Z,91.00
2023-01-05T23:48:30.669Z,91.19
2023-01-05T23:50:58.005Z,91.03
2023-01-05T23:53:25.666Z,91.02
2023-01-05T23:55:52.653Z,90.56
2023-01-05T23:58:19.049Z,91.00
